Downey, CA

3:56 AM PST on December 07, 2016 (GMT -0800)
Near Downey Hospital | | Change Station

Elev 121 ft 33.93 °N, 118.14 °W | Updated 17 seconds ago

Overcast
Overcast
51.8 °F
Feels Like 51.8 °F
N
0.0
Wind Variable Wind from WSW
Gusts 0.0 mph

Today
High -- | Low -- °F
--% Chance of Precip.
Yesterday
High -- | Low -- °F
Precip. -- in
Pressure 30.02 in
Visibility 5.0 miles
Clouds Overcast 3600 ft
Dew Point 51 °F
Humidity 98%
Rainfall 0.00 in
Snow Depth Not available.
6:45 AM 4:43 PM
First Quarter, 51% visible
METAR KLGB 071153Z 00000KT 5SM BR OVC036 11/09 A3002 RMK AO2 SLP166 T01060094 10133 20100 50002
Pressure 30.02 in
Visibility 5.0 miles
Clouds Overcast 3600 ft
Dew Point 51 °F
Humidity 98%
Rainfall 0.00 in
Snow Depth Not available.
6:45 AM 4:43 PM
First Quarter, 51% visible
METAR KLGB 071153Z 00000KT 5SM BR OVC036 11/09 A3002 RMK AO2 SLP166 T01060094 10133 20100 50002

10-Day Weather Forecast

Almanac

Astronomy

Dec. 07, 2016 Rise Set
Actual Time
Civil Twilight
Nautical Twilight
Astronomical Twilight
Moon
Length of Visible Light
Length of Day
Tomorrow will be .
, % of the Moon is Illuminated

Today's Extremes

State Highs State Lows

Community

WunderPhotos

Upload Photos

1,956,111 photos uploaded!

WunderBlog® & News

Nearby

Air Quality

  Air Quality AQ Index Pollutant
Not available.

Snow Depth

Station Depth Elevation

Earthquake Activity

City Distance Mag. Time & Date
Minimum magnitude displayed is 2.5.

Coastal Water Temperatures

Place Temperature

Stations

Nearby Weather Stations

Station Location Temp. Windchill Dew Point Humidity Wind Precip. Elev Updated Type
                   

Watches & Warnings

There are currently no watches in effect.